createdAt,value
2024-01-29T00:04:18.338Z,-1.31
2024-01-29T00:19:19.011Z,-1.54
2024-01-29T00:34:19.644Z,-1.78
2024-01-29T00:49:20.287Z,-2.18
2024-01-29T01:04:20.835Z,-2.32
2024-01-29T01:19:21.418Z,-2.23
2024-01-29T01:34:22.189Z,-2.21
2024-01-29T01:49:22.507Z,-2.50
2024-01-29T02:04:23.432Z,-2.50
2024-01-29T02:19:23.517Z,-2.40
2024-01-29T02:34:24.152Z,-2.43
2024-01-29T02:49:24.901Z,-2.38
2024-01-29T03:04:25.467Z,-2.61
2024-01-29T03:19:26.019Z,-3.02
2024-01-29T03:34:26.539Z,-3.15
2024-01-29T03:49:27.353Z,-3.26
2024-01-29T04:04:27.910Z,-3.36
2024-01-29T04:19:28.433Z,-3.43
2024-01-29T04:34:28.935Z,-3.53
2024-01-29T04:49:29.331Z,-3.56
2024-01-29T05:04:29.874Z,-3.60
2024-01-29T05:19:30.451Z,-3.64
2024-01-29T05:34:30.744Z,-3.68
2024-01-29T05:49:31.509Z,-3.71
2024-01-29T06:04:31.970Z,-3.72
2024-01-29T06:19:32.418Z,-3.83
2024-01-29T06:34:32.800Z,-3.81
2024-01-29T06:49:33.421Z,-3.64
2024-01-29T07:04:34.063Z,-3.60
2024-01-29T07:19:34.979Z,-3.56
2024-01-29T07:34:35.372Z,-3.46
2024-01-29T08:04:36.254Z,-2.75
2024-01-29T08:19:36.662Z,-2.10
2024-01-29T08:34:36.984Z,-1.88
2024-01-29T08:49:37.721Z,-1.48
2024-01-29T09:04:38.477Z,-0.78
2024-01-29T09:19:38.923Z,0.02
2024-01-29T09:34:39.742Z,0.79
2024-01-29T09:49:40.492Z,1.82
2024-01-29T10:04:41.222Z,2.40
2024-01-29T10:19:41.880Z,3.13
2024-01-29T10:34:42.601Z,4.55
2024-01-29T10:49:42.989Z,5.73
2024-01-29T11:04:44.124Z,6.72
2024-01-29T11:19:44.218Z,7.19
2024-01-29T11:34:44.715Z,7.56
2024-01-29T11:49:45.590Z,7.74
2024-01-29T12:04:46.270Z,7.62
2024-01-29T12:19:46.732Z,7.47
2024-01-29T12:34:47.354Z,7.55
2024-01-29T12:49:48.114Z,7.59
2024-01-29T13:04:48.309Z,7.92
2024-01-29T13:19:49.078Z,8.12
2024-01-29T13:34:49.681Z,8.44
2024-01-29T13:49:49.980Z,8.60
2024-01-29T14:04:51.885Z,8.51
2024-01-29T14:19:55.494Z,8.58
2024-01-29T14:34:53.600Z,8.76
2024-01-29T14:49:52.880Z,8.66
2024-01-29T15:04:53.893Z,8.53
2024-01-29T15:19:54.484Z,8.18
2024-01-29T15:34:55.181Z,7.31
2024-01-29T15:49:55.511Z,6.66
2024-01-29T16:04:56.086Z,5.96
2024-01-29T16:19:57.350Z,5.50
2024-01-29T16:34:57.708Z,5.13
2024-01-29T16:49:58.172Z,5.04
2024-01-29T17:04:59.037Z,4.18
2024-01-29T17:19:59.427Z,3.94
2024-01-29T17:34:59.851Z,3.13
2024-01-29T17:50:00.178Z,2.17
2024-01-29T18:05:00.513Z,1.75
2024-01-29T18:20:01.374Z,1.52
2024-01-29T18:35:02.092Z,1.21
2024-01-29T18:50:02.702Z,1.00
2024-01-29T19:05:03.289Z,0.65
2024-01-29T19:20:03.701Z,0.13
2024-01-29T19:35:04.152Z,-0.15
2024-01-29T19:50:04.695Z,-0.69
2024-01-29T20:05:05.055Z,-0.68
2024-01-29T20:20:05.501Z,-0.80
2024-01-29T20:35:06.060Z,-0.81
2024-01-29T20:50:06.775Z,-0.81
2024-01-29T21:05:07.242Z,-1.20
2024-01-29T21:20:07.741Z,-1.51
2024-01-29T21:35:08.161Z,-1.56
2024-01-29T21:50:08.597Z,-1.48
2024-01-29T22:05:08.998Z,-1.41
2024-01-29T22:20:09.636Z,-1.36
2024-01-29T22:35:10.534Z,-1.48
2024-01-29T22:50:10.984Z,-1.60
2024-01-29T23:05:11.415Z,-1.63
2024-01-29T23:20:11.868Z,-1.78
2024-01-29T23:35:12.347Z,-1.95
2024-01-29T23:50:12.838Z,-1.90
